KLND/LND METAR and TAF weather

Enter ICAO airport designator
Station Type Date Time Source
KLND METAR 2020/09/27 03:53 UTC NOAA

KLND 270353Z AUTO 16006KT 10SM CLR 11/M01 A3000 RMK AO2 SLP113 T01111011


Station Type Date Time Source
KLND Decoded METAR 2020/09/27 03:53 UTC NOAA

LANDER HUNT FIELD, WY, United States (KLND) 42-49N 108-44W 1694M
Sep 26, 2020 - 11:53 PM EDT / 2020.09.27 0353 UTC
Wind: from the SSE (160 degrees) at 7 MPH (6 KT):0
Visibility: 10 mile(s):0
Sky conditions: clear
Temperature: 52.0 F (11.1 C)
Dew Point: 30.0 F (-1.1 C)
Relative Humidity: 42%
Pressure (altimeter): 30 in. Hg (1015 hPa)
ob: KLND 270353Z AUTO 16006KT 10SM CLR 11/M01 A3000 RMK AO2 SLP113 T01111011
cycle: 4

Station Type Date Time Source
KLND TAF 2020/09/26 18:30 UTC NOAA

TAF KLND 261729Z 2618/2718 28017G25KT P6SM SCT050 BKN100
FM270300 VRB06KT P6SM SCT080

Example: see airport list